sensor_id;sensor_type;location;lat;lon;timestamp;P1;durP1;ratioP1;P2;durP2;ratioP2
56201;SDS011;42117;50.360;3.508;2022-09-21T00:00:35;10.63;;;2.75;;
56201;SDS011;42117;50.360;3.508;2022-09-21T00:03:02;4.30;;;3.38;;
56201;SDS011;42117;50.360;3.508;2022-09-21T00:05:28;6.25;;;2.67;;
56201;SDS011;42117;50.360;3.508;2022-09-21T00:07:54;6.38;;;2.70;;
56201;SDS011;42117;50.360;3.508;2022-09-21T00:10:20;7.38;;;3.15;;
56201;SDS011;42117;50.360;3.508;2022-09-21T00:12:47;5.53;;;2.80;;
56201;SDS011;42117;50.360;3.508;2022-09-21T00:15:13;4.25;;;2.97;;
56201;SDS011;42117;50.360;3.508;2022-09-21T00:17:41;6.88;;;3.03;;
56201;SDS011;42117;50.360;3.508;2022-09-21T00:20:08;5.35;;;2.80;;
56201;SDS011;42117;50.360;3.508;2022-09-21T00:22:34;6.28;;;3.33;;
56201;SDS011;42117;50.360;3.508;2022-09-21T00:25:01;5.15;;;2.90;;
56201;SDS011;42117;50.360;3.508;2022-09-21T00:27:27;5.25;;;2.75;;
56201;SDS011;42117;50.360;3.508;2022-09-21T00:30:00;7.13;;;3.78;;
56201;SDS011;42117;50.360;3.508;2022-09-21T00:32:31;9.77;;;4.45;;
56201;SDS011;42117;50.360;3.508;2022-09-21T00:34:57;52.08;;;19.70;;
56201;SDS011;42117;50.360;3.508;2022-09-21T00:37:24;33.05;;;11.30;;
56201;SDS011;42117;50.360;3.508;2022-09-21T00:39:50;11.77;;;5.70;;
56201;SDS011;42117;50.360;3.508;2022-09-21T00:42:24;11.52;;;4.15;;
56201;SDS011;42117;50.360;3.508;2022-09-21T00:44:50;10.90;;;5.20;;
56201;SDS011;42117;50.360;3.508;2022-09-21T00:47:19;2.55;;;2.40;;
56201;SDS011;42117;50.360;3.508;2022-09-21T00:49:49;6.30;;;2.63;;
56201;SDS011;42117;50.360;3.508;2022-09-21T00:52:18;8.48;;;3.10;;
56201;SDS011;42117;50.360;3.508;2022-09-21T00:54:49;4.95;;;3.10;;
56201;SDS011;42117;50.360;3.508;2022-09-21T00:57:16;6.07;;;3.05;;
56201;SDS011;42117;50.360;3.508;2022-09-21T00:59:45;3.83;;;3.05;;
56201;SDS011;42117;50.360;3.508;2022-09-21T01:02:11;14.00;;;3.30;;
56201;SDS011;42117;50.360;3.508;2022-09-21T01:04:39;6.35;;;3.30;;
56201;SDS011;42117;50.360;3.508;2022-09-21T01:07:06;5.30;;;3.33;;
56201;SDS011;42117;50.360;3.508;2022-09-21T01:09:36;3.83;;;3.45;;
56201;SDS011;42117;50.360;3.508;2022-09-21T01:16:56;4.30;;;2.65;;
56201;SDS011;42117;50.360;3.508;2022-09-21T01:22:17;4.18;;;2.50;;
56201;SDS011;42117;50.360;3.508;2022-09-21T01:24:51;7.32;;;3.47;;
56201;SDS011;42117;50.360;3.508;2022-09-21T01:29:52;5.85;;;3.10;;
56201;SDS011;42117;50.360;3.508;2022-09-21T01:32:32;8.65;;;2.95;;
56201;SDS011;42117;50.360;3.508;2022-09-21T01:35:13;6.72;;;2.60;;
56201;SDS011;42117;50.360;3.508;2022-09-21T01:40:08;3.92;;;2.95;;
56201;SDS011;42117;50.360;3.508;2022-09-21T01:42:36;3.20;;;2.90;;
56201;SDS011;42117;50.360;3.508;2022-09-21T01:45:03;4.95;;;2.55;;
56201;SDS011;42117;50.360;3.508;2022-09-21T01:47:31;4.43;;;2.88;;
56201;SDS011;42117;50.360;3.508;2022-09-21T01:49:58;4.55;;;2.85;;
56201;SDS011;42117;50.360;3.508;2022-09-21T01:52:30;7.22;;;2.90;;
56201;SDS011;42117;50.360;3.508;2022-09-21T01:55:14;3.90;;;3.05;;
56201;SDS011;42117;50.360;3.508;2022-09-21T01:57:42;4.90;;;2.85;;
56201;SDS011;42117;50.360;3.508;2022-09-21T02:00:10;6.18;;;3.42;;
56201;SDS011;42117;50.360;3.508;2022-09-21T02:05:03;9.15;;;3.42;;
56201;SDS011;42117;50.360;3.508;2022-09-21T02:07:31;4.68;;;2.90;;
56201;SDS011;42117;50.360;3.508;2022-09-21T02:09:57;4.97;;;3.00;;
56201;SDS011;42117;50.360;3.508;2022-09-21T02:12:25;7.13;;;3.60;;
56201;SDS011;42117;50.360;3.508;2022-09-21T02:14:51;2.88;;;2.65;;
56201;SDS011;42117;50.360;3.508;2022-09-21T02:17:29;3.38;;;2.72;;
56201;SDS011;42117;50.360;3.508;2022-09-21T02:25:12;9.18;;;3.33;;
56201;SDS011;42117;50.360;3.508;2022-09-21T02:27:44;13.40;;;2.90;;
56201;SDS011;42117;50.360;3.508;2022-09-21T02:30:23;8.40;;;3.60;;
56201;SDS011;42117;50.360;3.508;2022-09-21T02:40:52;4.22;;;2.78;;
56201;SDS011;42117;50.360;3.508;2022-09-21T02:43:26;5.68;;;3.05;;
56201;SDS011;42117;50.360;3.508;2022-09-21T02:45:59;6.22;;;3.15;;
56201;SDS011;42117;50.360;3.508;2022-09-21T02:48:33;4.13;;;2.85;;
56201;SDS011;42117;50.360;3.508;2022-09-21T02:51:08;5.32;;;3.60;;
56201;SDS011;42117;50.360;3.508;2022-09-21T02:53:35;5.30;;;3.10;;
56201;SDS011;42117;50.360;3.508;2022-09-21T02:56:02;5.68;;;3.28;;
56201;SDS011;42117;50.360;3.508;2022-09-21T02:58:31;4.97;;;2.95;;
56201;SDS011;42117;50.360;3.508;2022-09-21T03:00:59;11.88;;;2.90;;
56201;SDS011;42117;50.360;3.508;2022-09-21T03:03:25;3.55;;;2.67;;
56201;SDS011;42117;50.360;3.508;2022-09-21T03:05:51;3.72;;;2.83;;
56201;SDS011;42117;50.360;3.508;2022-09-21T03:08:18;2.88;;;2.65;;
56201;SDS011;42117;50.360;3.508;2022-09-21T03:10:45;5.22;;;2.92;;
56201;SDS011;42117;50.360;3.508;2022-09-21T03:13:14;6.18;;;4.10;;
56201;SDS011;42117;50.360;3.508;2022-09-21T03:15:40;3.42;;;3.13;;
56201;SDS011;42117;50.360;3.508;2022-09-21T03:18:07;4.80;;;3.13;;
56201;SDS011;42117;50.360;3.508;2022-09-21T03:20:37;5.60;;;3.63;;
56201;SDS011;42117;50.360;3.508;2022-09-21T03:23:03;3.22;;;2.63;;
56201;SDS011;42117;50.360;3.508;2022-09-21T03:25:29;4.15;;;3.00;;
56201;SDS011;42117;50.360;3.508;2022-09-21T03:27:55;6.82;;;4.00;;
56201;SDS011;42117;50.360;3.508;2022-09-21T03:30:22;5.50;;;3.40;;
56201;SDS011;42117;50.360;3.508;2022-09-21T03:32:49;4.85;;;2.90;;
56201;SDS011;42117;50.360;3.508;2022-09-21T03:35:15;9.27;;;3.22;;
56201;SDS011;42117;50.360;3.508;2022-09-21T03:37:42;6.00;;;3.58;;
56201;SDS011;42117;50.360;3.508;2022-09-21T03:40:08;10.35;;;4.20;;
56201;SDS011;42117;50.360;3.508;2022-09-21T03:42:35;5.03;;;3.92;;
56201;SDS011;42117;50.360;3.508;2022-09-21T03:45:01;4.80;;;2.67;;
56201;SDS011;42117;50.360;3.508;2022-09-21T03:47:27;5.78;;;3.60;;
56201;SDS011;42117;50.360;3.508;2022-09-21T03:49:53;4.75;;;3.13;;
56201;SDS011;42117;50.360;3.508;2022-09-21T03:52:19;7.80;;;4.18;;
56201;SDS011;42117;50.360;3.508;2022-09-21T03:54:45;5.07;;;3.30;;
56201;SDS011;42117;50.360;3.508;2022-09-21T03:57:11;5.68;;;3.90;;
56201;SDS011;42117;50.360;3.508;2022-09-21T03:59:37;10.77;;;3.67;;
56201;SDS011;42117;50.360;3.508;2022-09-21T04:02:03;6.20;;;3.97;;
56201;SDS011;42117;50.360;3.508;2022-09-21T04:04:29;5.47;;;3.65;;
56201;SDS011;42117;50.360;3.508;2022-09-21T04:06:55;7.50;;;3.60;;
56201;SDS011;42117;50.360;3.508;2022-09-21T04:09:21;4.78;;;3.45;;
56201;SDS011;42117;50.360;3.508;2022-09-21T04:11:47;9.90;;;4.53;;
56201;SDS011;42117;50.360;3.508;2022-09-21T04:14:13;8.57;;;4.88;;
56201;SDS011;42117;50.360;3.508;2022-09-21T04:16:39;9.98;;;3.97;;
56201;SDS011;42117;50.360;3.508;2022-09-21T04:19:05;6.03;;;3.42;;
56201;SDS011;42117;50.360;3.508;2022-09-21T04:21:31;7.28;;;4.53;;
56201;SDS011;42117;50.360;3.508;2022-09-21T04:23:57;7.45;;;4.40;;
56201;SDS011;42117;50.360;3.508;2022-09-21T04:26:25;8.63;;;4.75;;
56201;SDS011;42117;50.360;3.508;2022-09-21T04:28:52;9.52;;;5.20;;
56201;SDS011;42117;50.360;3.508;2022-09-21T04:31:19;15.25;;;6.28;;
56201;SDS011;42117;50.360;3.508;2022-09-21T04:33:49;7.70;;;4.88;;
56201;SDS011;42117;50.360;3.508;2022-09-21T04:38:41;12.10;;;5.53;;
56201;SDS011;42117;50.360;3.508;2022-09-21T04:41:07;5.43;;;4.03;;
56201;SDS011;42117;50.360;3.508;2022-09-21T04:43:33;6.80;;;4.78;;
56201;SDS011;42117;50.360;3.508;2022-09-21T04:46:10;8.15;;;5.85;;
56201;SDS011;42117;50.360;3.508;2022-09-21T04:48:36;15.38;;;6.25;;
56201;SDS011;42117;50.360;3.508;2022-09-21T04:51:03;11.82;;;5.57;;
56201;SDS011;42117;50.360;3.508;2022-09-21T04:53:31;16.85;;;6.40;;
56201;SDS011;42117;50.360;3.508;2022-09-21T04:55:58;13.35;;;6.38;;
56201;SDS011;42117;50.360;3.508;2022-09-21T04:58:24;10.27;;;6.13;;
56201;SDS011;42117;50.360;3.508;2022-09-21T05:00:50;12.52;;;6.70;;
56201;SDS011;42117;50.360;3.508;2022-09-21T05:03:19;10.27;;;6.40;;
56201;SDS011;42117;50.360;3.508;2022-09-21T05:05:49;11.73;;;6.95;;
56201;SDS011;42117;50.360;3.508;2022-09-21T05:08:15;12.10;;;7.20;;
56201;SDS011;42117;50.360;3.508;2022-09-21T05:10:42;23.95;;;7.30;;
56201;SDS011;42117;50.360;3.508;2022-09-21T05:13:09;17.38;;;7.18;;
56201;SDS011;42117;50.360;3.508;2022-09-21T05:15:36;13.27;;;6.55;;
56201;SDS011;42117;50.360;3.508;2022-09-21T05:18:03;13.77;;;6.78;;
56201;SDS011;42117;50.360;3.508;2022-09-21T05:20:29;14.55;;;7.07;;
56201;SDS011;42117;50.360;3.508;2022-09-21T05:22:58;11.55;;;6.95;;
56201;SDS011;42117;50.360;3.508;2022-09-21T05:25:25;24.70;;;7.93;;
56201;SDS011;42117;50.360;3.508;2022-09-21T05:27:51;14.05;;;7.47;;
56201;SDS011;42117;50.360;3.508;2022-09-21T05:30:17;13.90;;;7.30;;
56201;SDS011;42117;50.360;3.508;2022-09-21T05:32:44;20.52;;;8.77;;
56201;SDS011;42117;50.360;3.508;2022-09-21T05:37:56;14.10;;;7.97;;
56201;SDS011;42117;50.360;3.508;2022-09-21T05:40:23;13.30;;;8.30;;
56201;SDS011;42117;50.360;3.508;2022-09-21T05:42:50;19.15;;;8.52;;
56201;SDS011;42117;50.360;3.508;2022-09-21T05:45:16;14.57;;;8.13;;
56201;SDS011;42117;50.360;3.508;2022-09-21T05:47:45;23.17;;;8.32;;
56201;SDS011;42117;50.360;3.508;2022-09-21T05:50:19;14.65;;;6.47;;
56201;SDS011;42117;50.360;3.508;2022-09-21T05:52:57;14.88;;;7.53;;
56201;SDS011;42117;50.360;3.508;2022-09-21T06:00:58;13.48;;;5.93;;
56201;SDS011;42117;50.360;3.508;2022-09-21T06:03:28;18.42;;;6.85;;
56201;SDS011;42117;50.360;3.508;2022-09-21T06:05:54;18.33;;;7.63;;
56201;SDS011;42117;50.360;3.508;2022-09-21T06:08:21;13.45;;;6.35;;
56201;SDS011;42117;50.360;3.508;2022-09-21T06:10:47;15.40;;;7.43;;
56201;SDS011;42117;50.360;3.508;2022-09-21T06:13:13;12.77;;;6.78;;
56201;SDS011;42117;50.360;3.508;2022-09-21T06:15:39;20.08;;;7.05;;
56201;SDS011;42117;50.360;3.508;2022-09-21T06:18:06;11.48;;;6.95;;
56201;SDS011;42117;50.360;3.508;2022-09-21T06:20:32;13.73;;;6.82;;
56201;SDS011;42117;50.360;3.508;2022-09-21T06:23:01;23.30;;;7.45;;
56201;SDS011;42117;50.360;3.508;2022-09-21T06:25:27;17.75;;;7.88;;
56201;SDS011;42117;50.360;3.508;2022-09-21T06:27:53;11.18;;;6.18;;
56201;SDS011;42117;50.360;3.508;2022-09-21T06:30:19;10.68;;;6.43;;
56201;SDS011;42117;50.360;3.508;2022-09-21T06:32:45;14.55;;;7.22;;
56201;SDS011;42117;50.360;3.508;2022-09-21T06:35:11;12.55;;;7.07;;
56201;SDS011;42117;50.360;3.508;2022-09-21T06:37:37;16.02;;;6.80;;
56201;SDS011;42117;50.360;3.508;2022-09-21T06:40:06;10.80;;;6.55;;
56201;SDS011;42117;50.360;3.508;2022-09-21T06:42:32;17.50;;;7.10;;
56201;SDS011;42117;50.360;3.508;2022-09-21T06:44:58;28.65;;;6.75;;
56201;SDS011;42117;50.360;3.508;2022-09-21T06:47:24;15.30;;;6.60;;
56201;SDS011;42117;50.360;3.508;2022-09-21T06:49:50;12.55;;;6.55;;
56201;SDS011;42117;50.360;3.508;2022-09-21T06:52:17;22.08;;;7.10;;
56201;SDS011;42117;50.360;3.508;2022-09-21T06:54:43;22.67;;;8.70;;
56201;SDS011;42117;50.360;3.508;2022-09-21T06:57:09;11.68;;;6.68;;
56201;SDS011;42117;50.360;3.508;2022-09-21T06:59:35;18.75;;;7.20;;
56201;SDS011;42117;50.360;3.508;2022-09-21T07:02:01;16.50;;;7.78;;
56201;SDS011;42117;50.360;3.508;2022-09-21T07:04:27;10.25;;;6.88;;
56201;SDS011;42117;50.360;3.508;2022-09-21T07:06:53;11.73;;;6.85;;
56201;SDS011;42117;50.360;3.508;2022-09-21T07:09:19;13.45;;;7.38;;
56201;SDS011;42117;50.360;3.508;2022-09-21T07:11:45;23.60;;;7.90;;
56201;SDS011;42117;50.360;3.508;2022-09-21T07:14:12;16.65;;;7.65;;
56201;SDS011;42117;50.360;3.508;2022-09-21T07:16:38;19.20;;;8.32;;
56201;SDS011;42117;50.360;3.508;2022-09-21T07:19:05;24.23;;;8.02;;
56201;SDS011;42117;50.360;3.508;2022-09-21T07:21:30;14.18;;;7.45;;
56201;SDS011;42117;50.360;3.508;2022-09-21T07:24:00;14.40;;;8.68;;
56201;SDS011;42117;50.360;3.508;2022-09-21T07:26:26;28.60;;;7.83;;
56201;SDS011;42117;50.360;3.508;2022-09-21T07:28:52;12.00;;;7.65;;
56201;SDS011;42117;50.360;3.508;2022-09-21T07:31:18;23.88;;;8.52;;
56201;SDS011;42117;50.360;3.508;2022-09-21T07:33:44;23.50;;;9.73;;
56201;SDS011;42117;50.360;3.508;2022-09-21T07:36:11;15.20;;;7.75;;
56201;SDS011;42117;50.360;3.508;2022-09-21T07:38:38;23.85;;;9.10;;
56201;SDS011;42117;50.360;3.508;2022-09-21T07:41:04;15.07;;;7.72;;
56201;SDS011;42117;50.360;3.508;2022-09-21T07:43:31;13.75;;;7.90;;
56201;SDS011;42117;50.360;3.508;2022-09-21T07:45:57;17.25;;;8.40;;
56201;SDS011;42117;50.360;3.508;2022-09-21T07:48:25;18.75;;;8.82;;
56201;SDS011;42117;50.360;3.508;2022-09-21T07:50:52;18.48;;;9.15;;
56201;SDS011;42117;50.360;3.508;2022-09-21T07:53:18;15.15;;;8.68;;
56201;SDS011;42117;50.360;3.508;2022-09-21T07:55:45;21.77;;;9.15;;
56201;SDS011;42117;50.360;3.508;2022-09-21T07:58:11;14.65;;;9.90;;
56201;SDS011;42117;50.360;3.508;2022-09-21T08:00:56;14.55;;;8.73;;
56201;SDS011;42117;50.360;3.508;2022-09-21T08:03:22;20.88;;;10.00;;
56201;SDS011;42117;50.360;3.508;2022-09-21T08:05:48;19.52;;;7.95;;
56201;SDS011;42117;50.360;3.508;2022-09-21T08:08:14;25.05;;;9.43;;
56201;SDS011;42117;50.360;3.508;2022-09-21T08:10:40;21.40;;;8.88;;
56201;SDS011;42117;50.360;3.508;2022-09-21T08:13:06;14.35;;;8.35;;
56201;SDS011;42117;50.360;3.508;2022-09-21T08:15:32;18.25;;;8.98;;
56201;SDS011;42117;50.360;3.508;2022-09-21T08:17:59;16.92;;;8.90;;
56201;SDS011;42117;50.360;3.508;2022-09-21T08:20:25;16.90;;;9.57;;
56201;SDS011;42117;50.360;3.508;2022-09-21T08:22:51;18.52;;;7.93;;
56201;SDS011;42117;50.360;3.508;2022-09-21T08:25:19;13.23;;;7.25;;
56201;SDS011;42117;50.360;3.508;2022-09-21T08:27:46;16.85;;;8.02;;
56201;SDS011;42117;50.360;3.508;2022-09-21T08:30:13;18.23;;;7.97;;
56201;SDS011;42117;50.360;3.508;2022-09-21T08:32:39;14.32;;;6.93;;
56201;SDS011;42117;50.360;3.508;2022-09-21T08:35:06;17.33;;;7.07;;
56201;SDS011;42117;50.360;3.508;2022-09-21T08:37:32;20.20;;;7.97;;
56201;SDS011;42117;50.360;3.508;2022-09-21T08:40:00;17.38;;;7.53;;
56201;SDS011;42117;50.360;3.508;2022-09-21T08:42:38;11.65;;;6.78;;
56201;SDS011;42117;50.360;3.508;2022-09-21T08:45:06;17.27;;;6.47;;
56201;SDS011;42117;50.360;3.508;2022-09-21T08:50:27;14.75;;;7.38;;
56201;SDS011;42117;50.360;3.508;2022-09-21T08:53:57;24.80;;;6.22;;
56201;SDS011;42117;50.360;3.508;2022-09-21T08:55:54;24.08;;;6.63;;
56201;SDS011;42117;50.360;3.508;2022-09-21T08:58:21;13.35;;;6.80;;
56201;SDS011;42117;50.360;3.508;2022-09-21T09:00:49;23.08;;;6.78;;
56201;SDS011;42117;50.360;3.508;2022-09-21T09:03:24;16.58;;;6.18;;
56201;SDS011;42117;50.360;3.508;2022-09-21T09:05:57;19.02;;;6.30;;
56201;SDS011;42117;50.360;3.508;2022-09-21T09:14:13;16.83;;;6.85;;
56201;SDS011;42117;50.360;3.508;2022-09-21T09:16:51;12.18;;;6.88;;
56201;SDS011;42117;50.360;3.508;2022-09-21T09:19:23;11.48;;;6.63;;
56201;SDS011;42117;50.360;3.508;2022-09-21T09:21:53;19.38;;;6.70;;
56201;SDS011;42117;50.360;3.508;2022-09-21T09:27:18;16.08;;;5.85;;
56201;SDS011;42117;50.360;3.508;2022-09-21T09:30:02;13.63;;;5.40;;
56201;SDS011;42117;50.360;3.508;2022-09-21T09:32:33;15.80;;;4.90;;
56201;SDS011;42117;50.360;3.508;2022-09-21T09:35:06;9.27;;;5.30;;
56201;SDS011;42117;50.360;3.508;2022-09-21T09:37:39;10.82;;;5.32;;
56201;SDS011;42117;50.360;3.508;2022-09-21T09:40:07;14.15;;;4.82;;
56201;SDS011;42117;50.360;3.508;2022-09-21T09:50:29;10.02;;;5.28;;
56201;SDS011;42117;50.360;3.508;2022-09-21T09:53:14;19.73;;;5.10;;
56201;SDS011;42117;50.360;3.508;2022-09-21T09:55:41;7.10;;;4.05;;
56201;SDS011;42117;50.360;3.508;2022-09-21T09:58:14;8.68;;;4.40;;
56201;SDS011;42117;50.360;3.508;2022-09-21T10:00:41;7.95;;;3.88;;
56201;SDS011;42117;50.360;3.508;2022-09-21T10:03:14;5.03;;;3.28;;
56201;SDS011;42117;50.360;3.508;2022-09-21T10:05:40;10.07;;;5.45;;
56201;SDS011;42117;50.360;3.508;2022-09-21T10:08:25;6.97;;;3.88;;
56201;SDS011;42117;50.360;3.508;2022-09-21T10:10:52;7.68;;;3.13;;
56201;SDS011;42117;50.360;3.508;2022-09-21T10:15:48;7.38;;;3.03;;
56201;SDS011;42117;50.360;3.508;2022-09-21T10:18:15;8.80;;;1.85;;
56201;SDS011;42117;50.360;3.508;2022-09-21T10:21:02;8.38;;;2.08;;
56201;SDS011;42117;50.360;3.508;2022-09-21T10:23:30;6.80;;;2.35;;
56201;SDS011;42117;50.360;3.508;2022-09-21T10:25:57;11.45;;;2.28;;
56201;SDS011;42117;50.360;3.508;2022-09-21T10:28:23;4.93;;;2.15;;
56201;SDS011;42117;50.360;3.508;2022-09-21T10:30:50;5.45;;;2.30;;
56201;SDS011;42117;50.360;3.508;2022-09-21T10:33:31;2.70;;;2.25;;
56201;SDS011;42117;50.360;3.508;2022-09-21T10:35:58;5.85;;;2.08;;
56201;SDS011;42117;50.360;3.508;2022-09-21T10:38:24;3.00;;;1.95;;
56201;SDS011;42117;50.360;3.508;2022-09-21T10:40:54;7.80;;;2.00;;
56201;SDS011;42117;50.360;3.508;2022-09-21T10:43:24;3.13;;;1.65;;
56201;SDS011;42117;50.360;3.508;2022-09-21T10:45:54;7.47;;;2.08;;
56201;SDS011;42117;50.360;3.508;2022-09-21T10:48:22;3.80;;;2.03;;
56201;SDS011;42117;50.360;3.508;2022-09-21T10:50:48;2.95;;;1.60;;
56201;SDS011;42117;50.360;3.508;2022-09-21T10:53:21;4.45;;;1.90;;
56201;SDS011;42117;50.360;3.508;2022-09-21T10:58:16;2.58;;;1.35;;
56201;SDS011;42117;50.360;3.508;2022-09-21T11:00:43;1.88;;;1.67;;
56201;SDS011;42117;50.360;3.508;2022-09-21T11:05:50;4.43;;;1.70;;
56201;SDS011;42117;50.360;3.508;2022-09-21T11:08:18;12.48;;;1.50;;
56201;SDS011;42117;50.360;3.508;2022-09-21T11:10:50;8.85;;;1.63;;
56201;SDS011;42117;50.360;3.508;2022-09-21T11:21:02;6.72;;;1.63;;
56201;SDS011;42117;50.360;3.508;2022-09-21T11:26:14;2.53;;;1.50;;
56201;SDS011;42117;50.360;3.508;2022-09-21T11:34:08;10.13;;;1.90;;
56201;SDS011;42117;50.360;3.508;2022-09-21T11:39:10;1.88;;;1.70;;
56201;SDS011;42117;50.360;3.508;2022-09-21T11:49:25;3.88;;;1.50;;
56201;SDS011;42117;50.360;3.508;2022-09-21T11:54:40;3.40;;;1.30;;
56201;SDS011;42117;50.360;3.508;2022-09-21T12:04:46;12.63;;;3.22;;
56201;SDS011;42117;50.360;3.508;2022-09-21T12:07:19;2.45;;;1.27;;
56201;SDS011;42117;50.360;3.508;2022-09-21T12:12:21;6.45;;;1.92;;
56201;SDS011;42117;50.360;3.508;2022-09-21T12:14:56;5.30;;;1.40;;
56201;SDS011;42117;50.360;3.508;2022-09-21T12:17:37;2.75;;;1.30;;
56201;SDS011;42117;50.360;3.508;2022-09-21T12:20:49;2.97;;;1.40;;
56201;SDS011;42117;50.360;3.508;2022-09-21T12:23:02;3.13;;;1.38;;
56201;SDS011;42117;50.360;3.508;2022-09-21T12:25:32;4.57;;;1.23;;
56201;SDS011;42117;50.360;3.508;2022-09-21T12:30:26;3.97;;;1.10;;
56201;SDS011;42117;50.360;3.508;2022-09-21T12:32:54;1.10;;;1.00;;
56201;SDS011;42117;50.360;3.508;2022-09-21T12:37:58;4.93;;;1.05;;
56201;SDS011;42117;50.360;3.508;2022-09-21T12:40:36;3.50;;;1.50;;
56201;SDS011;42117;50.360;3.508;2022-09-21T12:43:37;8.27;;;2.40;;
56201;SDS011;42117;50.360;3.508;2022-09-21T12:45:57;8.88;;;2.70;;
56201;SDS011;42117;50.360;3.508;2022-09-21T12:50:54;11.18;;;3.03;;
56201;SDS011;42117;50.360;3.508;2022-09-21T12:53:24;11.20;;;3.47;;
56201;SDS011;42117;50.360;3.508;2022-09-21T12:58:43;11.00;;;2.97;;
56201;SDS011;42117;50.360;3.508;2022-09-21T13:09:00;9.15;;;3.30;;
56201;SDS011;42117;50.360;3.508;2022-09-21T13:11:28;8.20;;;3.50;;
56201;SDS011;42117;50.360;3.508;2022-09-21T13:13:56;12.65;;;3.35;;
56201;SDS011;42117;50.360;3.508;2022-09-21T13:16:31;8.73;;;3.17;;
56201;SDS011;42117;50.360;3.508;2022-09-21T13:18:59;9.20;;;3.67;;
56201;SDS011;42117;50.360;3.508;2022-09-21T13:21:26;7.35;;;3.22;;
56201;SDS011;42117;50.360;3.508;2022-09-21T13:24:00;8.52;;;3.80;;
56201;SDS011;42117;50.360;3.508;2022-09-21T13:36:41;6.20;;;2.45;;
56201;SDS011;42117;50.360;3.508;2022-09-21T13:41:34;8.27;;;2.83;;
56201;SDS011;42117;50.360;3.508;2022-09-21T13:44:02;8.90;;;2.72;;
56201;SDS011;42117;50.360;3.508;2022-09-21T13:54:23;10.82;;;3.40;;
56201;SDS011;42117;50.360;3.508;2022-09-21T13:59:28;7.70;;;2.55;;
56201;SDS011;42117;50.360;3.508;2022-09-21T14:01:55;8.55;;;3.05;;
56201;SDS011;42117;50.360;3.508;2022-09-21T14:06:48;5.13;;;2.47;;
56201;SDS011;42117;50.360;3.508;2022-09-21T14:09:19;9.70;;;2.80;;
56201;SDS011;42117;50.360;3.508;2022-09-21T14:11:49;7.25;;;2.70;;
56201;SDS011;42117;50.360;3.508;2022-09-21T14:21:59;5.78;;;3.00;;
56201;SDS011;42117;50.360;3.508;2022-09-21T14:24:35;5.93;;;2.85;;
56201;SDS011;42117;50.360;3.508;2022-09-21T14:29:44;13.30;;;3.15;;
56201;SDS011;42117;50.360;3.508;2022-09-21T14:32:14;7.45;;;2.53;;
56201;SDS011;42117;50.360;3.508;2022-09-21T14:34:41;7.82;;;3.08;;
56201;SDS011;42117;50.360;3.508;2022-09-21T14:39:36;6.07;;;3.00;;
56201;SDS011;42117;50.360;3.508;2022-09-21T14:42:07;5.95;;;1.98;;
56201;SDS011;42117;50.360;3.508;2022-09-21T14:44:36;5.57;;;2.50;;
56201;SDS011;42117;50.360;3.508;2022-09-21T14:47:06;6.20;;;2.33;;
56201;SDS011;42117;50.360;3.508;2022-09-21T14:57:33;9.25;;;2.90;;
56201;SDS011;42117;50.360;3.508;2022-09-21T15:02:30;6.03;;;2.80;;
56201;SDS011;42117;50.360;3.508;2022-09-21T15:07:33;9.07;;;2.40;;
56201;SDS011;42117;50.360;3.508;2022-09-21T15:10:26;5.97;;;1.98;;
56201;SDS011;42117;50.360;3.508;2022-09-21T15:13:35;5.88;;;2.10;;
56201;SDS011;42117;50.360;3.508;2022-09-21T15:16:28;4.63;;;2.20;;
56201;SDS011;42117;50.360;3.508;2022-09-21T15:18:59;6.05;;;1.77;;
56201;SDS011;42117;50.360;3.508;2022-09-21T15:21:29;5.07;;;2.25;;
56201;SDS011;42117;50.360;3.508;2022-09-21T15:23:56;4.35;;;2.70;;
56201;SDS011;42117;50.360;3.508;2022-09-21T15:26:31;7.00;;;3.00;;
56201;SDS011;42117;50.360;3.508;2022-09-21T15:28:59;10.13;;;2.40;;
56201;SDS011;42117;50.360;3.508;2022-09-21T15:31:36;6.63;;;2.25;;
56201;SDS011;42117;50.360;3.508;2022-09-21T15:34:06;9.77;;;1.75;;
56201;SDS011;42117;50.360;3.508;2022-09-21T15:36:37;4.72;;;1.60;;
56201;SDS011;42117;50.360;3.508;2022-09-21T15:39:03;4.65;;;1.83;;
56201;SDS011;42117;50.360;3.508;2022-09-21T15:44:10;2.97;;;1.38;;
56201;SDS011;42117;50.360;3.508;2022-09-21T15:46:38;3.13;;;1.52;;
56201;SDS011;42117;50.360;3.508;2022-09-21T15:49:08;3.25;;;1.75;;
56201;SDS011;42117;50.360;3.508;2022-09-21T15:51:36;3.63;;;1.60;;
56201;SDS011;42117;50.360;3.508;2022-09-21T15:56:32;3.55;;;1.38;;
56201;SDS011;42117;50.360;3.508;2022-09-21T15:59:05;7.60;;;1.30;;
56201;SDS011;42117;50.360;3.508;2022-09-21T16:01:44;1.95;;;1.17;;
56201;SDS011;42117;50.360;3.508;2022-09-21T16:04:12;2.00;;;1.08;;
56201;SDS011;42117;50.360;3.508;2022-09-21T16:06:40;2.72;;;0.90;;
56201;SDS011;42117;50.360;3.508;2022-09-21T16:11:53;1.85;;;1.15;;
56201;SDS011;42117;50.360;3.508;2022-09-21T16:14:19;3.22;;;1.25;;
56201;SDS011;42117;50.360;3.508;2022-09-21T16:22:12;7.55;;;1.27;;
56201;SDS011;42117;50.360;3.508;2022-09-21T16:24:45;4.57;;;1.27;;
56201;SDS011;42117;50.360;3.508;2022-09-21T16:27:15;1.02;;;1.00;;
56201;SDS011;42117;50.360;3.508;2022-09-21T16:29:43;3.05;;;1.27;;
56201;SDS011;42117;50.360;3.508;2022-09-21T16:32:31;3.53;;;1.15;;
56201;SDS011;42117;50.360;3.508;2022-09-21T16:37:40;2.38;;;1.23;;
56201;SDS011;42117;50.360;3.508;2022-09-21T16:40:08;4.38;;;1.35;;
56201;SDS011;42117;50.360;3.508;2022-09-21T16:42:34;8.88;;;1.48;;
56201;SDS011;42117;50.360;3.508;2022-09-21T16:45:01;4.32;;;1.52;;
56201;SDS011;42117;50.360;3.508;2022-09-21T16:47:27;5.13;;;1.33;;
56201;SDS011;42117;50.360;3.508;2022-09-21T16:49:54;2.80;;;1.13;;
56201;SDS011;42117;50.360;3.508;2022-09-21T16:52:25;5.03;;;1.50;;
56201;SDS011;42117;50.360;3.508;2022-09-21T16:54:55;10.30;;;1.40;;
56201;SDS011;42117;50.360;3.508;2022-09-21T16:57:22;2.22;;;1.35;;
56201;SDS011;42117;50.360;3.508;2022-09-21T16:59:49;3.55;;;1.33;;
56201;SDS011;42117;50.360;3.508;2022-09-21T17:02:15;5.88;;;1.50;;
56201;SDS011;42117;50.360;3.508;2022-09-21T17:04:42;2.50;;;1.00;;
56201;SDS011;42117;50.360;3.508;2022-09-21T17:07:11;2.33;;;1.67;;
56201;SDS011;42117;50.360;3.508;2022-09-21T17:09:39;4.13;;;1.30;;
56201;SDS011;42117;50.360;3.508;2022-09-21T17:12:07;2.40;;;1.63;;
56201;SDS011;42117;50.360;3.508;2022-09-21T17:14:35;2.30;;;1.13;;
56201;SDS011;42117;50.360;3.508;2022-09-21T17:17:03;4.65;;;1.25;;
56201;SDS011;42117;50.360;3.508;2022-09-21T17:19:32;5.55;;;1.10;;
56201;SDS011;42117;50.360;3.508;2022-09-21T17:21:59;4.20;;;1.35;;
56201;SDS011;42117;50.360;3.508;2022-09-21T17:24:25;2.22;;;1.70;;
56201;SDS011;42117;50.360;3.508;2022-09-21T17:26:51;8.70;;;1.63;;
56201;SDS011;42117;50.360;3.508;2022-09-21T17:29:18;1.92;;;1.40;;
56201;SDS011;42117;50.360;3.508;2022-09-21T17:31:46;2.00;;;1.20;;
56201;SDS011;42117;50.360;3.508;2022-09-21T17:34:15;0.93;;;0.90;;
56201;SDS011;42117;50.360;3.508;2022-09-21T17:36:41;4.65;;;1.25;;
56201;SDS011;42117;50.360;3.508;2022-09-21T17:39:07;3.90;;;1.50;;
56201;SDS011;42117;50.360;3.508;2022-09-21T17:41:37;2.97;;;1.50;;
56201;SDS011;42117;50.360;3.508;2022-09-21T17:44:20;2.38;;;1.83;;
56201;SDS011;42117;50.360;3.508;2022-09-21T17:46:52;5.70;;;2.20;;
56201;SDS011;42117;50.360;3.508;2022-09-21T17:49:22;4.82;;;2.28;;
56201;SDS011;42117;50.360;3.508;2022-09-21T17:51:48;2.47;;;1.63;;
56201;SDS011;42117;50.360;3.508;2022-09-21T17:54:32;4.45;;;1.67;;
56201;SDS011;42117;50.360;3.508;2022-09-21T17:59:33;4.10;;;2.05;;
56201;SDS011;42117;50.360;3.508;2022-09-21T18:01:59;3.63;;;1.65;;
56201;SDS011;42117;50.360;3.508;2022-09-21T18:04:26;5.20;;;2.45;;
56201;SDS011;42117;50.360;3.508;2022-09-21T18:06:54;5.55;;;1.83;;